Aérodrome :
LOGIN :

S'inscrire | Disclaimer

   EN    FR    IT 

 










Légende :    VFR   VFR Marginal   IFR   IFR Intensif   IFR Très Intensif
Visi : 
Plafond : 
>= 8 km
>= 3000ft
5 à 8 km
1000 à 3000 ft
1500m à 5 km
500 à 1000 ft
800 à 1500m
200 à 500 ft
< 800m
< 200 ft
Symboles :   Orages  Brouillard  Fortes neiges  Fortes précipitations  Vent > 20 kt
SIGMETs :   Divers  Orages  Givrage  Turbulence  Onde Orograph.  Cendres Volcan.







- Altitude de l'aérodrome : 294 ft
- Code IATA : NAP


LIRN - Naples Capodichino

DERNIER METAR :
  • 121350Z 19014G24KT 9999 FEW040 17/11 Q1016 NOSIG

METARs EXPIRÉS :
  • 121320Z 18014G24KT 9999 FEW040 17/10 Q1015 NOSIG
  • 121250Z 19013G25KT 170V230 9999 FEW040 17/11 Q1015 NOSIG
  • 121220Z 19012G23KT 9999 SCT040 18/11 Q1016 NOSIG
  • 121150Z 18013G23KT 150V210 9999 SCT040 18/11 Q1016 NOSIG
  • 121120Z 19014G24KT 9999 SCT040 17/10 Q1016 NOSIG

TAF TAF LIRN
Valide du 12 à 12h jusqu'au 13 à 12h UTC


121100Z 1212/1312 18010KT 8000 SCT030
BECMG 1303/1306 26013KT
TEMPO 1306/1312 SHRA
Pas de NOTAMs connus pour ce terrain.



MET'MAP, la Météo Aéronautique d'un coup d'oeil ! - Copyright ORBIFLY Décembre 2007 - Disclaimer

ORBIFLY MET'MAP TEAM :

Programmation & Développement : Alexandra Zaïnal
Conception & Développement : Baudouin d'Aumeries
Co-Programmation & Développement : Marc-Olivier Méhu
Soutien technique & logistique : Manuel Goepfert

Contact : metmap@orbifly.com




SOURCES & CREDITS :

   NOAA